createdAt,value
2022-08-05T00:00:07.563Z,24.80
2022-08-05T00:02:54.826Z,24.70
2022-08-05T00:06:04.838Z,24.70
2022-08-05T00:08:50.549Z,24.60
2022-08-05T00:11:49.202Z,24.60
2022-08-05T00:14:44.383Z,24.50
2022-08-05T00:17:32.253Z,24.40
2022-08-05T00:20:20.522Z,24.30
2022-08-05T00:23:13.169Z,24.30
2022-08-05T00:26:00.524Z,24.30
2022-08-05T00:28:49.279Z,24.30
2022-08-05T00:31:54.009Z,24.20
2022-08-05T00:35:05.216Z,24.20
2022-08-05T00:37:54.151Z,24.20
2022-08-05T00:40:51.993Z,24.20
2022-08-05T00:43:47.075Z,24.20
2022-08-05T00:46:42.756Z,24.10
2022-08-05T00:49:32.636Z,24.10
2022-08-05T00:52:28.682Z,24.00
2022-08-05T00:55:16.132Z,24.00
2022-08-05T00:58:06.133Z,23.90
2022-08-05T01:01:02.612Z,23.90
2022-08-05T01:03:57.195Z,23.90
2022-08-05T01:06:48.448Z,23.80
2022-08-05T01:09:36.201Z,23.80
2022-08-05T01:12:29.672Z,23.70
2022-08-05T01:15:36.328Z,23.70
2022-08-05T01:18:34.163Z,23.70
2022-08-05T01:21:38.603Z,23.60
2022-08-05T01:24:44.278Z,23.60
2022-08-05T01:27:55.501Z,23.60
2022-08-05T01:30:53.634Z,23.50
2022-08-05T01:33:53.630Z,23.50
2022-08-05T01:36:46.971Z,23.50
2022-08-05T01:39:46.594Z,23.40
2022-08-05T01:42:37.884Z,23.30
2022-08-05T01:45:34.873Z,23.30
2022-08-05T01:48:34.328Z,23.30
2022-08-05T01:51:23.135Z,23.30
2022-08-05T01:54:14.222Z,23.30
2022-08-05T01:58:10.381Z,23.30
2022-08-05T02:00:15.567Z,23.30
2022-08-05T02:03:24.043Z,23.20
2022-08-05T02:06:37.553Z,23.20
2022-08-05T02:09:23.572Z,23.20
2022-08-05T02:12:25.259Z,23.10
2022-08-05T02:15:21.772Z,23.10
2022-08-05T02:18:31.857Z,23.00
2022-08-05T02:21:26.471Z,23.10
2022-08-05T02:24:23.014Z,23.00
2022-08-05T02:27:12.134Z,23.00
2022-08-05T02:30:01.702Z,22.90
2022-08-05T02:32:52.611Z,23.00
2022-08-05T02:35:49.913Z,22.90
2022-08-05T02:38:53.505Z,22.90
2022-08-05T02:42:00.805Z,22.90
2022-08-05T02:44:49.446Z,22.80
2022-08-05T02:47:58.713Z,22.80
2022-08-05T02:50:52.032Z,22.80
2022-08-05T02:53:40.642Z,22.80
2022-08-05T02:56:29.276Z,22.80
2022-08-05T02:59:20.211Z,22.80
2022-08-05T03:02:16.137Z,22.80
2022-08-05T03:05:04.454Z,22.70
2022-08-05T03:08:04.603Z,22.70
2022-08-05T03:11:53.400Z,22.60
2022-08-05T03:14:03.255Z,22.60
2022-08-05T03:16:53.322Z,22.60
2022-08-05T03:19:41.868Z,22.50
2022-08-05T03:22:32.241Z,22.50
2022-08-05T03:34:02.213Z,22.40
2022-08-05T03:36:49.541Z,22.40
2022-08-05T03:39:57.701Z,22.30
2022-08-05T03:42:52.084Z,22.30
2022-08-05T03:45:57.305Z,22.30
2022-08-05T03:48:46.771Z,22.20
2022-08-05T03:52:38.007Z,22.20
2022-08-05T03:55:34.547Z,22.20
2022-08-05T03:58:02.088Z,22.20
2022-08-05T04:00:53.020Z,22.10
2022-08-05T04:04:09.542Z,22.10
2022-08-05T04:06:51.770Z,22.10
2022-08-05T04:09:39.242Z,22.00
2022-08-05T04:24:05.433Z,22.00
2022-08-05T04:26:54.703Z,21.90
2022-08-05T04:29:45.360Z,21.90
2022-08-05T04:32:36.919Z,21.90
2022-08-05T04:35:24.766Z,21.90
2022-08-05T04:38:39.448Z,21.90
2022-08-05T04:41:36.682Z,21.90
2022-08-05T04:44:29.308Z,21.90
2022-08-05T04:47:18.773Z,22.00
2022-08-05T04:50:11.512Z,22.00
2022-08-05T04:52:58.841Z,22.10
2022-08-05T04:56:11.903Z,22.20
2022-08-05T04:58:55.093Z,22.20
2022-08-05T05:02:35.153Z,22.30
2022-08-05T05:04:49.901Z,22.40
2022-08-05T05:07:39.803Z,22.50
2022-08-05T05:10:47.350Z,22.60
2022-08-05T05:13:43.600Z,22.70
2022-08-05T05:16:30.620Z,22.80
2022-08-05T05:19:23.599Z,22.90
2022-08-05T05:22:23.653Z,23.00
2022-08-05T05:25:16.519Z,23.20
2022-08-05T05:28:05.010Z,23.30
2022-08-05T05:30:52.424Z,23.40
2022-08-05T05:33:58.531Z,23.60
2022-08-05T05:36:47.203Z,23.70
2022-08-05T05:39:38.601Z,23.80
2022-08-05T05:42:31.042Z,23.90
2022-08-05T05:45:19.484Z,24.10
2022-08-05T05:48:08.653Z,24.20
2022-08-05T05:50:55.799Z,24.30
2022-08-05T05:53:54.387Z,24.50
2022-08-05T05:56:46.104Z,24.60
2022-08-05T05:59:40.173Z,24.80
2022-08-05T06:02:32.632Z,25.00
2022-08-05T06:05:25.814Z,25.10
2022-08-05T06:08:13.736Z,25.40
2022-08-05T06:11:01.203Z,25.50
2022-08-05T06:13:54.104Z,25.70
2022-08-05T06:16:43.999Z,25.80
2022-08-05T06:19:34.578Z,25.80
2022-08-05T06:22:26.010Z,26.00
2022-08-05T06:25:25.248Z,26.10
2022-08-05T06:28:21.088Z,26.20
2022-08-05T06:31:11.063Z,26.30
2022-08-05T06:34:09.025Z,26.40
2022-08-05T06:36:57.980Z,26.50
2022-08-05T06:39:46.206Z,26.60
2022-08-05T06:42:33.367Z,26.70
2022-08-05T06:45:21.664Z,26.90
2022-08-05T06:48:54.571Z,27.00
2022-08-05T06:51:36.041Z,27.10
2022-08-05T06:54:28.074Z,27.30
2022-08-05T06:58:03.208Z,27.40
2022-08-05T07:00:25.627Z,27.60
2022-08-05T07:03:12.632Z,27.70
2022-08-05T07:06:05.349Z,27.80
2022-08-05T07:09:04.075Z,27.90
2022-08-05T07:11:52.478Z,28.00
2022-08-05T07:14:53.954Z,28.00
2022-08-05T07:18:07.430Z,28.10
2022-08-05T07:20:46.000Z,28.10
2022-08-05T07:23:31.988Z,28.20
2022-08-05T07:26:22.842Z,28.20
2022-08-05T07:29:13.203Z,28.30
2022-08-05T07:32:00.638Z,28.20
2022-08-05T07:34:52.271Z,28.30
2022-08-05T07:37:47.234Z,28.30
2022-08-05T07:40:34.532Z,28.30
2022-08-05T07:43:23.987Z,28.30
2022-08-05T07:46:24.867Z,28.30
2022-08-05T07:49:13.807Z,28.30
2022-08-05T07:52:01.616Z,28.30
2022-08-05T07:54:49.417Z,28.30
2022-08-05T07:57:50.484Z,28.40
2022-08-05T08:00:45.956Z,28.40
2022-08-05T08:03:44.596Z,28.40
2022-08-05T08:06:32.841Z,28.50
2022-08-05T08:09:20.420Z,28.60
2022-08-05T08:12:27.207Z,28.80
2022-08-05T08:15:16.196Z,29.00
2022-08-05T08:18:14.118Z,29.20
2022-08-05T08:21:04.073Z,29.40
2022-08-05T08:24:02.938Z,29.60
2022-08-05T08:26:52.473Z,29.70
2022-08-05T08:30:03.997Z,29.90
2022-08-05T08:32:46.809Z,30.10
2022-08-05T08:35:41.397Z,30.30
2022-08-05T08:38:40.465Z,30.50
2022-08-05T08:41:52.524Z,30.60
2022-08-05T08:45:18.027Z,30.70
2022-08-05T08:48:12.695Z,30.90
2022-08-05T08:51:23.224Z,31.10
2022-08-05T08:54:09.048Z,31.30
2022-08-05T08:56:56.691Z,31.50
2022-08-05T08:59:48.962Z,31.60
2022-08-05T09:02:36.336Z,31.70
2022-08-05T09:05:38.248Z,31.90
2022-08-05T09:08:35.810Z,32.00
2022-08-05T09:11:51.111Z,32.10
2022-08-05T09:14:57.460Z,32.10
2022-08-05T09:17:49.436Z,32.40
2022-08-05T09:20:38.090Z,32.60
2022-08-05T09:23:27.189Z,32.80
2022-08-05T09:26:20.812Z,32.90
2022-08-05T09:29:10.201Z,33.10
2022-08-05T09:32:40.407Z,33.20
2022-08-05T09:35:26.493Z,33.40
2022-08-05T09:38:18.713Z,33.60
2022-08-05T09:41:16.258Z,33.70
2022-08-05T09:44:04.888Z,33.80
2022-08-05T09:47:10.250Z,33.90
2022-08-05T09:50:02.179Z,34.00
2022-08-05T09:53:00.024Z,34.10
2022-08-05T09:55:56.895Z,34.10
2022-08-05T09:58:59.932Z,34.20
2022-08-05T10:01:48.460Z,34.30
2022-08-05T10:04:48.412Z,34.40
2022-08-05T10:08:34.603Z,34.30
2022-08-05T10:10:59.883Z,34.30
2022-08-05T10:13:48.216Z,34.30
2022-08-05T10:16:52.266Z,34.20
2022-08-05T10:20:04.564Z,34.20
2022-08-05T10:22:51.269Z,34.20
2022-08-05T10:25:38.224Z,34.10
2022-08-05T10:28:29.699Z,34.10
2022-08-05T10:32:51.959Z,34.10
2022-08-05T10:34:30.041Z,34.00
2022-08-05T10:37:20.312Z,33.90
2022-08-05T10:40:19.931Z,34.00
2022-08-05T10:43:31.096Z,34.00
2022-08-05T10:46:44.180Z,34.00
2022-08-05T10:49:33.191Z,34.10
2022-08-05T10:52:49.468Z,34.10
2022-08-05T10:56:05.022Z,34.10
2022-08-05T10:59:12.117Z,34.10
2022-08-05T11:02:38.088Z,34.10
2022-08-05T11:05:25.253Z,34.10
2022-08-05T11:08:34.289Z,34.10
2022-08-05T11:11:44.553Z,34.20
2022-08-05T11:17:59.924Z,34.30
2022-08-05T11:20:52.215Z,34.50
2022-08-05T11:24:03.876Z,34.50
2022-08-05T11:27:07.684Z,34.50
2022-08-05T11:30:01.323Z,34.60
2022-08-05T11:32:48.505Z,34.60
2022-08-05T11:36:07.659Z,34.60
2022-08-05T11:38:57.775Z,34.60
2022-08-05T11:42:00.939Z,34.60
2022-08-05T11:44:53.802Z,34.60
2022-08-05T11:47:49.690Z,34.60
2022-08-05T11:50:41.938Z,34.60
2022-08-05T11:53:30.043Z,34.70
2022-08-05T11:56:41.199Z,34.70
2022-08-05T11:59:49.404Z,34.90
2022-08-05T12:02:39.989Z,34.90
2022-08-05T12:05:36.073Z,35.00
2022-08-05T12:08:26.547Z,35.10
2022-08-05T12:11:20.465Z,35.10
2022-08-05T12:14:10.057Z,35.10
2022-08-05T12:16:59.021Z,35.00
2022-08-05T12:20:25.958Z,35.10
2022-08-05T12:23:09.668Z,35.00
2022-08-05T12:25:57.310Z,34.90
2022-08-05T12:28:44.578Z,34.90
2022-08-05T12:31:42.447Z,34.90
2022-08-05T12:34:37.031Z,34.80
2022-08-05T12:37:24.800Z,34.70
2022-08-05T12:40:26.310Z,34.70
2022-08-05T12:43:20.886Z,34.60
2022-08-05T12:46:08.017Z,34.60
2022-08-05T12:49:13.092Z,34.60
2022-08-05T12:52:12.389Z,34.60
2022-08-05T12:55:22.208Z,34.60
2022-08-05T12:58:50.149Z,34.70
2022-08-05T13:02:02.061Z,34.70
2022-08-05T13:04:24.498Z,34.80
2022-08-05T13:07:30.944Z,34.80
2022-08-05T13:10:25.949Z,34.90
2022-08-05T13:14:04.699Z,34.90
2022-08-05T13:16:28.359Z,34.90
2022-08-05T13:19:16.177Z,34.90
2022-08-05T13:22:03.439Z,34.90
2022-08-05T13:24:58.109Z,34.90
2022-08-05T13:27:50.276Z,35.00
2022-08-05T13:30:39.127Z,35.00
2022-08-05T13:34:22.767Z,35.00
2022-08-05T13:36:34.494Z,35.00
2022-08-05T13:40:13.858Z,34.90
2022-08-05T13:42:29.963Z,34.90
2022-08-05T13:45:20.202Z,35.00
2022-08-05T13:48:57.169Z,35.00
2022-08-05T13:51:16.214Z,35.00
2022-08-05T13:54:03.285Z,35.00
2022-08-05T13:56:59.303Z,35.00
2022-08-05T13:59:57.124Z,34.90
2022-08-05T14:02:44.538Z,34.90
2022-08-05T14:06:19.184Z,34.90
2022-08-05T14:08:39.708Z,34.90
2022-08-05T14:11:26.806Z,34.90
2022-08-05T14:14:23.104Z,34.90
2022-08-05T14:17:16.946Z,34.90
2022-08-05T14:20:07.776Z,34.80
2022-08-05T14:22:55.196Z,34.60
2022-08-05T14:25:45.357Z,34.60
2022-08-05T14:28:33.263Z,34.60
2022-08-05T14:32:02.650Z,34.70
2022-08-05T14:34:35.178Z,34.70
2022-08-05T14:37:22.974Z,34.70
2022-08-05T14:40:14.101Z,34.70
2022-08-05T14:43:22.042Z,34.80
2022-08-05T14:46:30.855Z,34.80
2022-08-05T14:49:17.892Z,34.80
2022-08-05T14:52:06.743Z,34.80
2022-08-05T14:54:57.234Z,34.70
2022-08-05T14:57:54.414Z,34.60
2022-08-05T15:00:59.373Z,34.50
2022-08-05T15:03:47.937Z,34.30
2022-08-05T15:06:36.373Z,34.20
2022-08-05T15:09:51.841Z,34.30
2022-08-05T15:12:51.345Z,34.30
2022-08-05T15:15:55.151Z,34.40
2022-08-05T15:18:42.969Z,34.50
2022-08-05T15:21:33.999Z,34.50
2022-08-05T15:24:22.031Z,34.50
2022-08-05T15:27:11.029Z,34.50
2022-08-05T15:29:58.781Z,34.40
2022-08-05T15:32:46.004Z,34.40
2022-08-05T15:35:36.247Z,34.30
2022-08-05T15:38:36.587Z,34.20
2022-08-05T15:41:56.408Z,34.20
2022-08-05T15:44:42.143Z,34.20
2022-08-05T15:47:29.375Z,34.20
2022-08-05T15:50:19.565Z,34.20
2022-08-05T15:53:12.733Z,34.20
2022-08-05T15:56:03.730Z,34.10
2022-08-05T15:58:51.250Z,34.10
2022-08-05T16:01:52.901Z,34.00
2022-08-05T16:04:41.033Z,34.10
2022-08-05T16:07:29.613Z,34.00
2022-08-05T16:10:17.332Z,34.00
2022-08-05T16:13:12.766Z,34.00
2022-08-05T16:16:12.267Z,33.90
2022-08-05T16:19:00.583Z,33.90
2022-08-05T16:22:01.083Z,33.90
2022-08-05T16:24:51.683Z,33.80
2022-08-05T16:27:59.988Z,33.70
2022-08-05T16:30:46.270Z,33.70
2022-08-05T16:33:41.513Z,33.50
2022-08-05T16:36:30.312Z,33.50
2022-08-05T16:39:18.520Z,33.40
2022-08-05T16:42:15.124Z,33.20
2022-08-05T16:45:06.225Z,33.20
2022-08-05T16:48:11.661Z,33.10
2022-08-05T16:51:12.893Z,33.00
2022-08-05T16:54:06.140Z,32.90
2022-08-05T16:57:02.032Z,32.80
2022-08-05T17:00:01.309Z,32.80
2022-08-05T17:02:51.731Z,32.80
2022-08-05T17:05:38.865Z,32.60
2022-08-05T17:08:35.821Z,32.50
2022-08-05T17:11:48.264Z,32.50
2022-08-05T17:14:38.201Z,32.40
2022-08-05T17:17:42.389Z,32.30
2022-08-05T17:20:39.850Z,32.30
2022-08-05T17:24:04.899Z,32.20
2022-08-05T17:26:36.754Z,32.10
2022-08-05T17:29:33.588Z,32.10
2022-08-05T17:32:28.345Z,32.00
2022-08-05T17:35:20.598Z,32.10
2022-08-05T17:38:09.118Z,32.00
2022-08-05T17:40:56.346Z,32.00
2022-08-05T17:43:50.638Z,31.90
2022-08-05T17:46:40.418Z,31.80
2022-08-05T17:49:29.116Z,31.70
2022-08-05T17:52:53.306Z,31.70
2022-08-05T17:55:42.101Z,31.60
2022-08-05T17:58:32.772Z,31.50
2022-08-05T18:01:21.343Z,31.40
2022-08-05T18:04:11.959Z,31.30
2022-08-05T18:07:01.121Z,31.20
2022-08-05T18:09:58.689Z,31.10
2022-08-05T18:12:47.434Z,31.00
2022-08-05T18:15:38.532Z,30.90
2022-08-05T18:18:27.357Z,30.90
2022-08-05T18:21:21.416Z,30.80
2022-08-05T18:24:14.388Z,30.80
2022-08-05T18:27:01.619Z,30.70
2022-08-05T18:29:54.096Z,30.70
2022-08-05T18:32:41.569Z,30.60
2022-08-05T18:35:59.770Z,30.60
2022-08-05T18:38:49.631Z,30.60
2022-08-05T18:42:00.467Z,30.60
2022-08-05T18:44:49.153Z,30.50
2022-08-05T18:47:42.587Z,30.50
2022-08-05T18:50:46.132Z,30.50
2022-08-05T18:53:42.991Z,30.50
2022-08-05T18:56:31.768Z,30.40
2022-08-05T18:59:43.127Z,30.30
2022-08-05T19:02:26.592Z,30.30
2022-08-05T19:06:13.534Z,30.30
2022-08-05T19:08:30.483Z,30.20
2022-08-05T19:11:27.887Z,30.20
2022-08-05T19:14:44.564Z,30.10
2022-08-05T19:17:22.147Z,30.10
2022-08-05T19:20:10.132Z,29.90
2022-08-05T19:22:57.523Z,29.60
2022-08-05T19:25:45.157Z,29.30
2022-08-05T19:28:33.730Z,28.80
2022-08-05T19:31:21.545Z,28.30
2022-08-05T19:34:10.148Z,27.60
2022-08-05T19:36:57.259Z,27.00
2022-08-05T19:39:45.922Z,26.60
2022-08-05T19:42:39.192Z,26.30
2022-08-05T19:45:27.647Z,25.90
2022-08-05T19:48:19.998Z,25.70
2022-08-05T19:51:07.077Z,25.50
2022-08-05T19:54:04.467Z,25.30
2022-08-05T19:56:53.091Z,25.10
2022-08-05T20:00:01.175Z,24.70
2022-08-05T20:02:49.813Z,24.50
2022-08-05T20:05:50.282Z,24.30
2022-08-05T20:08:38.667Z,24.10
2022-08-05T20:11:25.768Z,23.90
2022-08-05T20:14:17.236Z,23.70
2022-08-05T20:17:10.406Z,23.60
2022-08-05T20:20:09.490Z,23.50
2022-08-05T20:22:58.311Z,23.50
2022-08-05T20:25:46.150Z,23.50
2022-08-05T20:28:36.223Z,23.40
2022-08-05T20:31:28.584Z,23.40
2022-08-05T20:34:31.147Z,23.60
2022-08-05T20:38:05.540Z,23.70
2022-08-05T20:40:26.852Z,23.80
2022-08-05T20:43:14.445Z,23.90
2022-08-05T20:46:01.796Z,23.90
2022-08-05T20:48:51.224Z,24.00
2022-08-05T20:51:38.362Z,24.10
2022-08-05T20:54:43.112Z,24.10
2022-08-05T20:57:43.408Z,24.10
2022-08-05T21:00:41.068Z,24.10
2022-08-05T21:03:37.138Z,24.00
2022-08-05T21:06:35.624Z,24.00
2022-08-05T21:09:22.852Z,24.00
2022-08-05T21:12:11.874Z,23.90
2022-08-05T21:14:59.092Z,23.90
2022-08-05T21:17:46.193Z,23.80
2022-08-05T21:20:34.818Z,23.90
2022-08-05T21:23:22.236Z,23.90
2022-08-05T21:26:12.392Z,23.90
2022-08-05T21:29:03.767Z,23.80
2022-08-05T21:31:51.660Z,23.80
2022-08-05T21:34:38.395Z,23.80
2022-08-05T21:37:25.410Z,23.80
2022-08-05T21:40:14.301Z,23.70
2022-08-05T21:43:05.558Z,23.60
2022-08-05T21:45:57.885Z,23.50
2022-08-05T21:48:47.760Z,23.30
2022-08-05T21:52:21.904Z,23.20
2022-08-05T21:54:43.475Z,23.10
2022-08-05T21:57:32.376Z,23.10
2022-08-05T22:00:20.054Z,23.10
2022-08-05T22:03:14.494Z,23.00
2022-08-05T22:06:01.856Z,23.00
2022-08-05T22:08:53.280Z,23.00
2022-08-05T22:11:42.722Z,22.90
2022-08-05T22:14:35.840Z,22.90
2022-08-05T22:17:25.839Z,22.90
2022-08-05T22:20:16.556Z,22.90
2022-08-05T22:23:21.222Z,22.90
2022-08-05T22:26:26.071Z,22.90
2022-08-05T22:29:12.732Z,22.80
2022-08-05T22:32:03.166Z,22.80
2022-08-05T22:34:49.256Z,22.70
2022-08-05T22:37:59.039Z,22.60
2022-08-05T22:40:49.310Z,22.50
2022-08-05T22:43:38.087Z,22.40
2022-08-05T22:46:25.838Z,22.40
2022-08-05T22:50:17.072Z,22.30
2022-08-05T22:52:32.532Z,22.30
2022-08-05T22:55:24.580Z,22.30
2022-08-05T22:58:14.614Z,22.30
2022-08-05T23:01:01.609Z,22.30
2022-08-05T23:03:58.000Z,22.40
2022-08-05T23:06:47.781Z,22.40
2022-08-05T23:09:53.377Z,22.50
2022-08-05T23:12:44.074Z,22.50
2022-08-05T23:15:35.409Z,22.50
2022-08-05T23:18:23.808Z,22.50
2022-08-05T23:21:11.007Z,22.50
2022-08-05T23:24:03.751Z,22.50
2022-08-05T23:26:58.468Z,22.40
2022-08-05T23:29:50.686Z,22.40
2022-08-05T23:32:37.839Z,22.30
2022-08-05T23:35:34.194Z,22.30
2022-08-05T23:38:21.253Z,22.30
2022-08-05T23:41:08.486Z,22.20
2022-08-05T23:44:08.573Z,22.20
2022-08-05T23:46:58.016Z,22.10
2022-08-05T23:49:46.016Z,22.10
2022-08-05T23:52:36.106Z,22.00
2022-08-05T23:55:37.098Z,21.90
2022-08-05T23:58:31.990Z,21.80
